createdAt,value
2023-08-24T00:00:33.674Z,98567.81
2023-08-24T00:01:35.144Z,98567.47
2023-08-24T00:02:36.602Z,98562.06
2023-08-24T00:03:37.957Z,98565.19
2023-08-24T00:04:39.385Z,98566.38
2023-08-24T00:05:41.593Z,98568.66
2023-08-24T00:06:42.929Z,98572.91
2023-08-24T00:07:44.304Z,98571.00
2023-08-24T00:08:45.656Z,98560.97
2023-08-24T00:09:46.961Z,98568.72
2023-08-24T00:10:48.366Z,98560.59
2023-08-24T00:11:49.738Z,98563.28
2023-08-24T00:12:51.072Z,98562.91
2023-08-24T00:13:52.878Z,98558.31
2023-08-24T00:14:54.199Z,98564.91
2023-08-24T00:15:55.673Z,98562.19
2023-08-24T00:16:57.079Z,98553.69
2023-08-24T00:17:58.449Z,98559.09
2023-08-24T00:18:59.990Z,98561.03
2023-08-24T00:20:01.470Z,98560.66
2023-08-24T00:21:02.828Z,98555.28
2023-08-24T00:22:04.196Z,98559.13
2023-08-24T00:23:05.612Z,98561.09
2023-08-24T00:24:07.145Z,98557.22
2023-08-24T00:25:09.037Z,98552.97
2023-08-24T00:26:10.559Z,98548.66
2023-08-24T00:27:12.070Z,98548.66
2023-08-24T00:28:13.421Z,98544.06
2023-08-24T00:29:14.822Z,98548.69
2023-08-24T00:30:16.494Z,98545.22
2023-08-24T00:31:18.379Z,98543.28
2023-08-24T00:32:19.750Z,98540.94
2023-08-24T00:33:21.106Z,98535.94
2023-08-24T00:34:22.526Z,98540.94
2023-08-24T00:35:23.905Z,98539.03
2023-08-24T00:36:26.631Z,98539.03
2023-08-24T00:37:28.112Z,98537.09
2023-08-24T00:38:29.714Z,98534.41
2023-08-24T00:39:32.738Z,98533.22
2023-08-24T00:40:34.796Z,98533.22
2023-08-24T00:41:36.181Z,98534.00
2023-08-24T00:42:45.266Z,98530.50
2023-08-24T00:43:46.559Z,98531.31
2023-08-24T00:44:48.238Z,98530.16
2023-08-24T00:45:50.827Z,98524.38
2023-08-24T00:46:53.332Z,98530.16
2023-08-24T00:47:54.892Z,98525.91
2023-08-24T00:48:56.807Z,98527.44
2023-08-24T00:49:58.223Z,98525.13
2023-08-24T00:51:01.662Z,98522.44
2023-08-24T00:52:03.329Z,98524.78
2023-08-24T00:53:04.804Z,98523.19
2023-08-24T00:54:06.409Z,98519.75
2023-08-24T00:55:09.072Z,98526.72
2023-08-24T00:56:10.508Z,98518.19
2023-08-24T00:57:12.255Z,98519.34
2023-08-24T00:58:14.937Z,98526.31
2023-08-24T00:59:16.381Z,98527.84
2023-08-24T01:00:17.858Z,98523.19
2023-08-24T01:01:19.483Z,98520.13
2023-08-24T01:02:20.991Z,98514.31
2023-08-24T01:03:25.635Z,98511.22
2023-08-24T01:04:27.049Z,98514.31
2023-08-24T01:05:29.272Z,98500.75
2023-08-24T01:06:30.636Z,98510.41
2023-08-24T01:07:36.770Z,98498.78
2023-08-24T01:08:38.325Z,98502.66
2023-08-24T01:09:41.145Z,98497.22
2023-08-24T01:10:58.592Z,98498.41
2023-08-24T01:12:19.319Z,98502.69
2023-08-24T01:13:39.956Z,98501.13
2023-08-24T01:15:00.263Z,98505.41
2023-08-24T01:16:07.193Z,98508.47
2023-08-24T01:17:11.876Z,98510.78
2023-08-24T01:18:16.923Z,98506.16
2023-08-24T01:19:38.175Z,98505.41
2023-08-24T01:20:41.359Z,98506.53
2023-08-24T01:21:43.532Z,98503.44
2023-08-24T01:22:59.290Z,98503.44
2023-08-24T01:24:27.069Z,98504.63
2023-08-24T01:25:47.290Z,98493.78
2023-08-24T01:26:49.904Z,98490.66
2023-08-24T01:27:53.444Z,98481.78
2023-08-24T01:28:55.393Z,98477.91
2023-08-24T01:30:00.229Z,98486.38
2023-08-24T01:31:01.860Z,98486.78
2023-08-24T01:32:03.301Z,98489.50
2023-08-24T01:33:05.282Z,98488.72
2023-08-24T01:34:06.668Z,98491.81
2023-08-24T01:35:10.184Z,98494.53
2023-08-24T01:36:14.783Z,98491.81
2023-08-24T01:37:16.216Z,98498.41
2023-08-24T01:38:17.891Z,98492.22
2023-08-24T01:39:35.644Z,98503.44
2023-08-24T01:40:54.334Z,98513.53
2023-08-24T01:42:00.741Z,98514.66
2023-08-24T01:43:08.032Z,98510.06
2023-08-24T01:44:13.133Z,98511.97
2023-08-24T01:45:17.437Z,98510.03
2023-08-24T01:46:21.740Z,98513.88
2023-08-24T01:47:24.950Z,98516.97
2023-08-24T01:48:27.029Z,98514.66
2023-08-24T01:49:30.237Z,98519.66
2023-08-24T01:50:32.158Z,98515.03
2023-08-24T01:51:35.552Z,98513.09
2023-08-24T01:52:37.214Z,98516.97
2023-08-24T01:53:40.155Z,98523.53
2023-08-24T01:54:41.633Z,98520.84
2023-08-24T01:55:43.018Z,98514.25
2023-08-24T01:56:44.426Z,98520.06
2023-08-24T01:57:45.883Z,98517.00
2023-08-24T01:58:47.228Z,98511.56
2023-08-24T01:59:49.726Z,98510.06
2023-08-24T02:00:51.177Z,98513.53
2023-08-24T02:01:52.509Z,98513.13
2023-08-24T02:02:53.917Z,98515.47
2023-08-24T02:03:55.387Z,98518.59
2023-08-24T02:04:56.743Z,98514.34
2023-08-24T02:05:58.511Z,98514.34
2023-08-24T02:06:59.848Z,98517.81
2023-08-24T02:08:01.177Z,98520.53
2023-08-24T02:09:02.519Z,98515.13
2023-08-24T02:10:04.980Z,98522.88
2023-08-24T02:11:06.948Z,98524.03
2023-08-24T02:12:08.449Z,98516.31
2023-08-24T02:13:09.805Z,98515.91
2023-08-24T02:14:11.189Z,98518.63
2023-08-24T02:15:12.878Z,98519.03
2023-08-24T02:16:14.266Z,98520.56
2023-08-24T02:17:15.665Z,98515.19
2023-08-24T02:18:17.061Z,98509.41
2023-08-24T02:19:18.415Z,98516.75
2023-08-24T02:20:19.751Z,98509.41
2023-08-24T02:21:21.082Z,98505.91
2023-08-24T02:22:22.457Z,98510.94
2023-08-24T02:23:23.770Z,98501.66
2023-08-24T02:24:25.104Z,98504.75
2023-08-24T02:25:26.477Z,98500.91
2023-08-24T02:26:27.806Z,98500.91
2023-08-24T02:27:29.205Z,98500.91
2023-08-24T02:28:30.715Z,98500.13
2023-08-24T02:29:32.108Z,98500.09
2023-08-24T02:30:33.432Z,98504.38
2023-08-24T02:31:34.879Z,98505.91
2023-08-24T02:32:36.283Z,98506.69
2023-08-24T02:33:37.639Z,98503.22
2023-08-24T02:34:39.050Z,98501.66
2023-08-24T02:35:40.434Z,98493.94
2023-08-24T02:36:41.770Z,98502.44
2023-08-24T02:37:43.145Z,98504.00
2023-08-24T02:38:44.460Z,98504.34
2023-08-24T02:39:45.758Z,98507.44
2023-08-24T02:40:47.123Z,98504.00
2023-08-24T02:41:48.524Z,98497.41
2023-08-24T02:42:49.938Z,98505.53
2023-08-24T02:43:51.309Z,98499.72
2023-08-24T02:44:54.228Z,98498.19
2023-08-24T02:46:03.274Z,98500.91
2023-08-24T02:47:05.510Z,98502.44
2023-08-24T02:48:06.999Z,98502.06
2023-08-24T02:49:09.012Z,98502.81
2023-08-24T02:50:10.690Z,98504.38
2023-08-24T02:51:12.033Z,98503.59
2023-08-24T02:52:13.352Z,98495.88
2023-08-24T02:53:14.734Z,98494.72
2023-08-24T02:54:16.062Z,98493.16
2023-08-24T02:55:17.379Z,98489.69
2023-08-24T02:56:18.758Z,98490.09
2023-08-24T02:57:20.081Z,98486.59
2023-08-24T02:58:21.586Z,98492.78
2023-08-24T02:59:22.979Z,98492.41
2023-08-24T03:00:24.305Z,98495.09
2023-08-24T03:01:25.636Z,98494.31
2023-08-24T03:02:27.096Z,98497.41
2023-08-24T03:03:28.563Z,98492.00
2023-08-24T03:04:30.481Z,98492.75
2023-08-24T03:05:31.811Z,98492.41
2023-08-24T03:06:33.342Z,98493.16
2023-08-24T03:07:34.657Z,98492.78
2023-08-24T03:08:36.083Z,98495.50
2023-08-24T03:09:37.454Z,98488.16
2023-08-24T03:10:38.867Z,98495.50
2023-08-24T03:11:42.097Z,98488.13
2023-08-24T03:12:43.429Z,98488.13
2023-08-24T03:13:45.178Z,98485.03
2023-08-24T03:14:46.882Z,98490.84
2023-08-24T03:15:48.710Z,98481.56
2023-08-24T03:16:50.099Z,98493.16
2023-08-24T03:17:52.762Z,98485.06
2023-08-24T03:18:54.296Z,98492.41
2023-08-24T03:19:55.633Z,98488.91
2023-08-24T03:20:57.070Z,98492.78
2023-08-24T03:21:58.401Z,98500.16
2023-08-24T03:22:59.753Z,98495.88
2023-08-24T03:24:01.325Z,98496.66
2023-08-24T03:25:02.821Z,98493.19
2023-08-24T03:26:04.192Z,98484.66
2023-08-24T03:27:05.612Z,98483.91
2023-08-24T03:28:07.905Z,98478.88
2023-08-24T03:29:09.304Z,98472.31
2023-08-24T03:30:11.159Z,98468.44
2023-08-24T03:31:12.538Z,98464.97
2023-08-24T03:32:13.980Z,98455.69
2023-08-24T03:33:15.401Z,98467.66
2023-08-24T03:34:16.797Z,98459.94
2023-08-24T03:35:18.286Z,98457.25
2023-08-24T03:36:19.627Z,98455.69
2023-08-24T03:37:21.162Z,98457.63
2023-08-24T03:38:22.525Z,98452.22
2023-08-24T03:39:23.889Z,98451.81
2023-08-24T03:40:25.308Z,98448.34
2023-08-24T03:41:26.646Z,98446.03
2023-08-24T03:42:28.047Z,98441.75
2023-08-24T03:43:33.241Z,98444.09
2023-08-24T03:44:35.140Z,98450.66
2023-08-24T03:45:36.557Z,98445.25
2023-08-24T03:46:39.841Z,98452.97
2023-08-24T03:47:41.363Z,98448.72
2023-08-24T03:48:42.773Z,98447.16
2023-08-24T03:49:44.624Z,98446.78
2023-08-24T03:50:46.791Z,98444.44
2023-08-24T03:51:49.414Z,98449.09
2023-08-24T03:52:51.647Z,98444.03
2023-08-24T03:53:53.009Z,98438.22
2023-08-24T03:54:54.659Z,98440.16
2023-08-24T03:55:56.073Z,98429.34
2023-08-24T03:56:57.474Z,98436.69
2023-08-24T03:57:58.812Z,98431.28
2023-08-24T03:59:01.524Z,98429.75
2023-08-24T04:00:04.235Z,98433.19
2023-08-24T04:01:15.229Z,98432.44
2023-08-24T04:02:17.456Z,98426.63
2023-08-24T04:03:19.064Z,98426.63
2023-08-24T04:04:20.511Z,98421.59
2023-08-24T04:05:21.924Z,98427.41
2023-08-24T04:06:23.551Z,98428.16
2023-08-24T04:07:24.937Z,98429.69
2023-08-24T04:08:26.278Z,98418.88
2023-08-24T04:09:27.615Z,98414.22
2023-08-24T04:10:30.312Z,98423.13
2023-08-24T04:11:33.414Z,98420.81
2023-08-24T04:12:34.852Z,98414.59
2023-08-24T04:13:36.214Z,98419.22
2023-08-24T04:14:37.594Z,98416.53
2023-08-24T04:15:38.947Z,98414.19
2023-08-24T04:16:40.971Z,98418.44
2023-08-24T04:17:44.556Z,98418.44
2023-08-24T04:18:46.248Z,98417.28
2023-08-24T04:19:47.731Z,98418.81
2023-08-24T04:20:49.090Z,98421.91
2023-08-24T04:21:50.431Z,98418.06
2023-08-24T04:22:51.806Z,98413.41
2023-08-24T04:23:54.016Z,98415.72
2023-08-24T04:24:55.346Z,98415.34
2023-08-24T04:25:56.896Z,98417.28
2023-08-24T04:26:58.245Z,98410.28
2023-08-24T04:27:59.585Z,98413.00
2023-08-24T04:29:00.974Z,98410.28
2023-08-24T04:30:02.312Z,98415.69
2023-08-24T04:31:03.648Z,98416.88
2023-08-24T04:32:05.121Z,98417.25
2023-08-24T04:33:06.496Z,98421.13
2023-08-24T04:34:07.894Z,98419.53
2023-08-24T04:35:09.515Z,98418.00
2023-08-24T04:36:10.871Z,98426.13
2023-08-24T04:37:12.205Z,98416.06
2023-08-24T04:38:13.579Z,98414.53
2023-08-24T04:39:14.915Z,98409.88
2023-08-24T04:40:16.270Z,98405.97
2023-08-24T04:41:17.686Z,98403.69
2023-08-24T04:42:19.008Z,98408.31
2023-08-24T04:43:21.787Z,98397.50
2023-08-24T04:44:23.762Z,98406.41
2023-08-24T04:45:25.209Z,98401.00
2023-08-24T04:46:26.772Z,98397.16
2023-08-24T04:47:28.404Z,98400.22
2023-08-24T04:48:29.754Z,98399.09
2023-08-24T04:49:31.506Z,98401.03
2023-08-24T04:50:32.927Z,98394.44
2023-08-24T04:51:34.279Z,98395.97
2023-08-24T04:52:35.595Z,98392.91
2023-08-24T04:53:36.995Z,98385.19
2023-08-24T04:54:38.330Z,98390.63
2023-08-24T04:55:39.696Z,98385.59
2023-08-24T04:56:41.086Z,98391.78
2023-08-24T04:57:42.415Z,98394.91
2023-08-24T04:58:56.906Z,98397.59
2023-08-24T04:59:58.286Z,98396.81
2023-08-24T05:00:59.667Z,98392.91
2023-08-24T05:02:01.069Z,98392.16
2023-08-24T05:03:06.987Z,98398.72
2023-08-24T05:04:08.344Z,98396.38
2023-08-24T05:05:10.182Z,98395.19
2023-08-24T05:06:11.536Z,98397.09
2023-08-24T05:07:12.912Z,98392.06
2023-08-24T05:08:14.277Z,98389.31
2023-08-24T05:09:15.634Z,98392.78
2023-08-24T05:10:17.113Z,98386.94
2023-08-24T05:11:20.434Z,98376.44
2023-08-24T05:12:21.832Z,98386.09
2023-08-24T05:13:23.168Z,98386.09
2023-08-24T05:14:24.481Z,98372.50
2023-08-24T05:15:26.295Z,98379.09
2023-08-24T05:16:27.662Z,98384.84
2023-08-24T05:17:29.370Z,98374.06
2023-08-24T05:18:30.815Z,98378.31
2023-08-24T05:19:32.313Z,98369.34
2023-08-24T05:20:33.786Z,98368.94
2023-08-24T05:21:35.351Z,98365.81
2023-08-24T05:22:37.534Z,98371.56
2023-08-24T05:23:38.878Z,98366.13
2023-08-24T05:24:40.324Z,98370.34
2023-08-24T05:25:44.490Z,98373.03
2023-08-24T05:26:47.592Z,98373.41
2023-08-24T05:27:49.409Z,98364.91
2023-08-24T05:28:51.359Z,98368.41
2023-08-24T05:29:52.695Z,98372.66
2023-08-24T05:30:54.580Z,98367.63
2023-08-24T05:31:55.934Z,98368.72
2023-08-24T05:32:57.425Z,98363.25
2023-08-24T05:33:58.845Z,98362.81
2023-08-24T05:35:00.184Z,98354.66
2023-08-24T05:36:01.515Z,98359.69
2023-08-24T05:37:02.867Z,98355.81
2023-08-24T05:38:04.549Z,98357.31
2023-08-24T05:39:06.808Z,98358.81
2023-08-24T05:40:08.946Z,98351.84
2023-08-24T05:41:10.295Z,98352.13
2023-08-24T05:42:11.861Z,98353.63
2023-08-24T05:43:13.636Z,98348.06
2023-08-24T05:44:14.982Z,98349.69
2023-08-24T05:45:16.435Z,98354.38
2023-08-24T05:46:17.933Z,98354.91
2023-08-24T05:47:19.359Z,98351.78
2023-08-24T05:48:20.730Z,98349.81
2023-08-24T05:49:22.198Z,98348.63
2023-08-24T05:50:23.604Z,98350.84
2023-08-24T05:51:24.937Z,98350.47
2023-08-24T05:52:26.568Z,98356.22
2023-08-24T05:53:27.987Z,98352.06
2023-08-24T05:54:29.377Z,98356.22
2023-08-24T05:55:30.724Z,98355.00
2023-08-24T05:56:32.291Z,98357.72
2023-08-24T05:57:33.626Z,98359.28
2023-08-24T05:58:34.988Z,98362.66
2023-08-24T05:59:36.286Z,98364.16
2023-08-24T06:00:37.732Z,98356.00
2023-08-24T06:01:39.679Z,98363.69
2023-08-24T06:02:41.246Z,98361.28
2023-08-24T06:03:42.595Z,98360.47
2023-08-24T06:04:43.940Z,98361.50
2023-08-24T06:05:45.263Z,98366.41
2023-08-24T06:06:46.641Z,98367.91
2023-08-24T06:07:49.852Z,98360.75
2023-08-24T06:08:51.461Z,98364.63
2023-08-24T06:09:52.819Z,98360.69
2023-08-24T06:10:54.155Z,98354.94
2023-08-24T06:11:55.468Z,98360.63
2023-08-24T06:12:56.780Z,98362.47
2023-08-24T06:13:58.166Z,98362.31
2023-08-24T06:15:01.640Z,98361.41
2023-08-24T06:16:03.021Z,98359.13
2023-08-24T06:17:04.414Z,98372.91
2023-08-24T06:18:05.829Z,98371.38
2023-08-24T06:19:07.222Z,98369.97
2023-08-24T06:20:09.272Z,98379.03
2023-08-24T06:21:10.623Z,98377.16
2023-08-24T06:22:11.979Z,98377.78
2023-08-24T06:23:13.318Z,98378.44
2023-08-24T06:24:14.664Z,98380.94
2023-08-24T06:25:16.108Z,98390.09
2023-08-24T06:26:18.737Z,98396.44
2023-08-24T06:27:20.072Z,98390.69
2023-08-24T06:28:21.407Z,98390.31
2023-08-24T06:29:22.868Z,98396.03
2023-08-24T06:30:24.166Z,98395.34
2023-08-24T06:31:25.578Z,98399.03
2023-08-24T06:32:27.123Z,98400.56
2023-08-24T06:33:29.186Z,98404.03
2023-08-24T06:34:31.051Z,98404.13
2023-08-24T06:35:35.669Z,98411.81
2023-08-24T06:36:36.998Z,98406.44
2023-08-24T06:37:38.324Z,98419.22
2023-08-24T06:38:39.679Z,98414.59
2023-08-24T06:39:41.033Z,98424.75
2023-08-24T06:40:42.338Z,98425.84
2023-08-24T06:41:43.732Z,98426.34
2023-08-24T06:42:45.049Z,98439.41
2023-08-24T06:43:46.418Z,98441.59
2023-08-24T06:44:48.649Z,98449.53
2023-08-24T06:45:50.044Z,98455.47
2023-08-24T06:46:51.597Z,98457.50
2023-08-24T06:47:53.150Z,98465.97
2023-08-24T06:48:54.852Z,98462.25
2023-08-24T06:49:56.216Z,98474.00
2023-08-24T06:50:57.573Z,98473.56
2023-08-24T06:51:58.973Z,98472.91
2023-08-24T06:53:00.456Z,98482.88
2023-08-24T06:54:01.836Z,98479.06
2023-08-24T06:55:04.402Z,98477.75
2023-08-24T06:56:05.708Z,98477.81
2023-08-24T06:57:07.038Z,98476.97
2023-08-24T06:58:08.399Z,98468.81
2023-08-24T06:59:09.749Z,98464.25
2023-08-24T07:00:11.593Z,98471.25
2023-08-24T07:01:13.000Z,98457.28
2023-08-24T07:02:14.969Z,98454.44
2023-08-24T07:03:16.338Z,98453.41
2023-08-24T07:04:17.692Z,98455.09
2023-08-24T07:05:19.155Z,98452.59
2023-08-24T07:06:20.494Z,98449.75
2023-08-24T07:07:21.804Z,98447.09
2023-08-24T07:08:23.135Z,98447.59
2023-08-24T07:09:24.471Z,98445.25
2023-08-24T07:10:25.897Z,98435.25
2023-08-24T07:11:27.238Z,98435.69
2023-08-24T07:12:29.329Z,98428.06
2023-08-24T07:13:30.959Z,98423.13
2023-08-24T07:14:32.305Z,98412.50
2023-08-24T07:15:33.772Z,98399.75
2023-08-24T07:16:35.193Z,98393.78
2023-08-24T07:17:36.535Z,98389.66
2023-08-24T07:18:37.984Z,98388.19
2023-08-24T07:19:39.298Z,98401.91
2023-08-24T07:20:40.919Z,98396.78
2023-08-24T07:21:42.276Z,98396.09
2023-08-24T07:22:43.633Z,98392.25
2023-08-24T07:23:44.964Z,98403.66
2023-08-24T07:24:47.018Z,98407.25
2023-08-24T07:25:48.442Z,98406.97
2023-08-24T07:26:49.784Z,98411.03
2023-08-24T07:27:51.445Z,98410.19
2023-08-24T07:28:53.383Z,98411.59
2023-08-24T07:29:54.805Z,98412.66
2023-08-24T07:30:56.314Z,98415.22
2023-08-24T07:31:57.941Z,98407.47
2023-08-24T07:32:59.492Z,98410.13
2023-08-24T07:34:01.272Z,98408.34
2023-08-24T07:35:02.890Z,98408.25
2023-08-24T07:36:04.516Z,98405.03
2023-08-24T07:37:06.009Z,98401.03
2023-08-24T07:38:07.315Z,98398.75
2023-08-24T07:39:08.770Z,98411.38
2023-08-24T07:40:10.678Z,98410.50
2023-08-24T07:41:11.993Z,98411.63
2023-08-24T07:42:13.441Z,98414.69
2023-08-24T07:43:14.869Z,98413.16
2023-08-24T07:44:16.217Z,98414.63
2023-08-24T07:45:18.682Z,98403.78
2023-08-24T07:46:20.077Z,98401.38
2023-08-24T07:47:21.425Z,98400.19
2023-08-24T07:48:22.751Z,98406.19
2023-08-24T07:49:24.104Z,98400.81
2023-08-24T07:50:25.416Z,98402.78
2023-08-24T07:51:26.770Z,98398.34
2023-08-24T07:52:28.110Z,98401.41
2023-08-24T07:53:29.685Z,98404.19
2023-08-24T07:54:31.004Z,98406.66
2023-08-24T07:55:32.434Z,98407.06
2023-08-24T07:56:34.131Z,98404.59
2023-08-24T07:57:36.084Z,98404.00
2023-08-24T07:58:37.656Z,98404.25
2023-08-24T07:59:39.003Z,98404.44
2023-08-24T08:00:40.384Z,98419.53
2023-08-24T08:01:41.865Z,98412.44
2023-08-24T08:02:43.269Z,98413.72
2023-08-24T08:03:44.614Z,98421.44
2023-08-24T08:04:46.105Z,98414.97
2023-08-24T08:05:48.244Z,98417.50
2023-08-24T08:06:49.580Z,98420.16
2023-08-24T08:07:51.296Z,98413.09
2023-08-24T08:08:52.706Z,98414.66
2023-08-24T08:09:54.070Z,98414.69
2023-08-24T08:11:02.770Z,98411.13
2023-08-24T08:12:04.533Z,98412.50
2023-08-24T08:13:05.847Z,98413.16
2023-08-24T08:14:07.257Z,98405.63
2023-08-24T08:15:08.747Z,98407.97
2023-08-24T08:16:10.571Z,98405.00
2023-08-24T08:17:12.307Z,98408.75
2023-08-24T08:18:13.682Z,98403.22
2023-08-24T08:19:15.068Z,98402.03
2023-08-24T08:20:16.456Z,98403.59
2023-08-24T08:21:21.730Z,98399.09
2023-08-24T08:22:24.384Z,98401.50
2023-08-24T08:23:25.879Z,98403.16
2023-08-24T08:24:27.191Z,98406.97
2023-08-24T08:25:28.501Z,98406.41
2023-08-24T08:26:29.905Z,98403.91
2023-08-24T08:27:31.313Z,98406.03
2023-08-24T08:28:32.666Z,98408.16
2023-08-24T08:29:34.083Z,98404.06
2023-08-24T08:30:35.498Z,98413.34
2023-08-24T08:31:37.017Z,98413.34
2023-08-24T08:32:38.430Z,98409.94
2023-08-24T08:33:40.025Z,98415.16
2023-08-24T08:34:41.373Z,98420.88
2023-08-24T08:35:42.790Z,98419.84
2023-08-24T08:36:44.117Z,98415.56
2023-08-24T08:37:46.293Z,98414.72
2023-08-24T08:38:47.664Z,98412.66
2023-08-24T08:39:49.076Z,98409.03
2023-08-24T08:40:51.186Z,98416.03
2023-08-24T08:41:52.574Z,98407.22
2023-08-24T08:42:53.983Z,98409.84
2023-08-24T08:43:56.408Z,98406.28
2023-08-24T08:44:58.596Z,98408.56
2023-08-24T08:46:01.201Z,98405.06
2023-08-24T08:47:02.956Z,98405.44
2023-08-24T08:48:05.055Z,98404.84
2023-08-24T08:49:07.905Z,98401.94
2023-08-24T08:50:09.782Z,98411.56
2023-08-24T08:51:12.677Z,98404.44
2023-08-24T08:52:14.028Z,98397.09
2023-08-24T08:53:15.400Z,98407.91
2023-08-24T08:54:16.741Z,98406.53
2023-08-24T08:55:18.985Z,98404.03
2023-08-24T08:56:21.185Z,98407.13
2023-08-24T08:57:24.779Z,98408.81
2023-08-24T08:58:28.235Z,98407.56
2023-08-24T08:59:29.827Z,98407.94
2023-08-24T09:00:32.791Z,98411.25
2023-08-24T09:01:34.111Z,98406.59
2023-08-24T09:02:36.237Z,98409.56
2023-08-24T09:03:40.100Z,98398.06
2023-08-24T09:04:45.440Z,98403.44
2023-08-24T09:05:47.040Z,98399.47
2023-08-24T09:06:48.386Z,98394.91
2023-08-24T09:07:50.195Z,98395.91
2023-08-24T09:08:53.365Z,98392.09
2023-08-24T09:09:54.740Z,98390.88
2023-08-24T09:10:56.106Z,98382.09
2023-08-24T09:11:58.503Z,98377.94
2023-08-24T09:12:59.837Z,98377.66
2023-08-24T09:14:01.187Z,98373.31
2023-08-24T09:15:07.349Z,98374.16
2023-08-24T09:16:10.593Z,98372.66
2023-08-24T09:17:19.939Z,98370.19
2023-08-24T09:18:21.385Z,98365.81
2023-08-24T09:19:32.150Z,98375.34
2023-08-24T09:20:34.649Z,98368.44
2023-08-24T09:21:39.847Z,98364.16
2023-08-24T09:22:41.219Z,98359.81
2023-08-24T09:23:53.046Z,98367.03
2023-08-24T09:24:54.379Z,98362.09
2023-08-24T09:25:55.790Z,98355.53
2023-08-24T09:26:57.463Z,98358.59
2023-08-24T09:28:08.372Z,98350.28
2023-08-24T09:29:15.037Z,98341.19
2023-08-24T09:30:16.419Z,98334.41
2023-08-24T09:31:17.832Z,98336.81
2023-08-24T09:32:24.525Z,98329.06
2023-08-24T09:33:25.947Z,98323.81
2023-08-24T09:34:27.305Z,98322.59
2023-08-24T09:35:28.768Z,98323.56
2023-08-24T09:36:33.781Z,98325.56
2023-08-24T09:37:36.097Z,98325.56
2023-08-24T09:38:37.610Z,98330.25
2023-08-24T09:39:38.944Z,98319.09
2023-08-24T09:40:46.099Z,98322.03
2023-08-24T09:41:52.692Z,98317.22
2023-08-24T09:42:54.034Z,98313.94
2023-08-24T09:43:55.391Z,98314.38
2023-08-24T09:45:03.872Z,98310.13
2023-08-24T09:46:05.276Z,98307.34
2023-08-24T09:47:10.542Z,98304.63
2023-08-24T09:48:11.893Z,98307.69
2023-08-24T09:49:13.522Z,98302.88
2023-08-24T09:50:14.893Z,98305.97
2023-08-24T09:51:16.787Z,98299.06
2023-08-24T09:52:19.012Z,98298.59
2023-08-24T09:53:22.002Z,98288.63
2023-08-24T09:54:27.932Z,98282.28
2023-08-24T09:55:32.448Z,98282.34
2023-08-24T09:56:36.506Z,98272.34
2023-08-24T09:57:39.989Z,98273.69
2023-08-24T09:58:43.658Z,98274.38
2023-08-24T10:01:00.591Z,98259.19
2023-08-24T10:02:03.351Z,98258.28
2023-08-24T10:03:05.882Z,98260.63
2023-08-24T10:04:09.704Z,98254.84
2023-08-24T10:05:21.818Z,98259.22
2023-08-24T10:06:33.114Z,98248.09
2023-08-24T10:07:37.529Z,98250.13
2023-08-24T10:08:44.670Z,98255.31
2023-08-24T10:10:03.180Z,98249.22
2023-08-24T10:11:07.039Z,98251.66
2023-08-24T10:12:09.568Z,98253.22
2023-08-24T10:13:21.242Z,98243.44
2023-08-24T10:14:32.567Z,98238.72
2023-08-24T10:15:35.738Z,98243.44
2023-08-24T10:16:38.210Z,98241.63
2023-08-24T10:17:40.994Z,98235.38
2023-08-24T10:18:43.127Z,98236.91
2023-08-24T10:19:45.280Z,98232.97
2023-08-24T10:20:50.274Z,98232.88
2023-08-24T10:21:54.709Z,98228.91
2023-08-24T10:23:00.898Z,98228.00
2023-08-24T10:24:04.513Z,98222.88
2023-08-24T10:25:08.452Z,98216.47
2023-08-24T10:26:11.471Z,98209.47
2023-08-24T10:27:14.770Z,98219.19
2023-08-24T10:28:16.208Z,98210.22
2023-08-24T10:29:18.126Z,98214.81
2023-08-24T10:30:24.876Z,98217.56
2023-08-24T10:31:27.630Z,98219.69
2023-08-24T10:32:29.829Z,98217.84
2023-08-24T10:33:33.396Z,98210.38
2023-08-24T10:34:36.007Z,98209.50
2023-08-24T10:35:37.869Z,98211.44
2023-08-24T10:36:41.215Z,98206.41
2023-08-24T10:37:45.369Z,98210.53
2023-08-24T10:38:47.701Z,98201.38
2023-08-24T10:39:50.138Z,98200.16
2023-08-24T10:40:52.945Z,98203.97
2023-08-24T10:41:54.983Z,98200.31
2023-08-24T10:42:56.646Z,98194.50
2023-08-24T10:44:07.319Z,98192.03
2023-08-24T10:45:09.144Z,98198.16
2023-08-24T10:46:15.814Z,98194.47
2023-08-24T10:47:21.337Z,98193.25
2023-08-24T10:48:27.616Z,98183.69
2023-08-24T10:49:30.748Z,98185.88
2023-08-24T10:50:32.344Z,98181.63
2023-08-24T10:51:44.309Z,98179.78
2023-08-24T10:52:45.712Z,98177.16
2023-08-24T10:53:54.962Z,98184.19
2023-08-24T10:54:57.287Z,98175.38
2023-08-24T10:56:12.730Z,98163.47
2023-08-24T10:57:21.403Z,98166.72
2023-08-24T10:58:23.011Z,98170.53
2023-08-24T10:59:28.448Z,98169.72
2023-08-24T11:00:34.246Z,98164.38
2023-08-24T11:01:39.677Z,98156.53
2023-08-24T11:02:47.258Z,98152.44
2023-08-24T11:03:56.708Z,98162.19
2023-08-24T11:05:15.296Z,98155.22
2023-08-24T11:06:26.495Z,98143.34
2023-08-24T11:07:29.133Z,98142.25
2023-08-24T11:08:47.172Z,98146.16
2023-08-24T11:09:49.953Z,98151.88
2023-08-24T11:10:53.747Z,98146.38
2023-08-24T11:12:06.324Z,98138.03
2023-08-24T11:13:13.707Z,98148.06
2023-08-24T11:14:20.253Z,98145.72
2023-08-24T11:15:31.123Z,98152.09
2023-08-24T11:16:48.917Z,98141.75
2023-08-24T11:18:15.936Z,98138.34
2023-08-24T11:19:17.432Z,98135.84
2023-08-24T11:20:22.730Z,98134.91
2023-08-24T11:21:24.361Z,98130.25
2023-08-24T11:22:26.636Z,98133.06
2023-08-24T11:23:29.042Z,98136.28
2023-08-24T11:24:30.655Z,98133.72
2023-08-24T11:25:36.601Z,98128.22
2023-08-24T11:26:47.780Z,98128.44
2023-08-24T11:27:49.574Z,98130.88
2023-08-24T11:28:54.397Z,98129.19
2023-08-24T11:30:00.702Z,98120.91
2023-08-24T11:31:03.590Z,98117.88
2023-08-24T11:32:05.258Z,98118.00
2023-08-24T11:33:06.884Z,98117.78
2023-08-24T11:34:08.896Z,98112.47
2023-08-24T11:35:12.416Z,98118.06
2023-08-24T11:36:13.741Z,98117.28
2023-08-24T11:37:21.332Z,98118.22
2023-08-24T11:38:24.202Z,98107.97
2023-08-24T11:39:26.503Z,98109.06
2023-08-24T11:40:28.634Z,98107.91
2023-08-24T11:41:29.967Z,98104.66
2023-08-24T11:42:37.717Z,98100.38
2023-08-24T11:43:39.311Z,98103.44
2023-08-24T11:44:48.433Z,98102.97
2023-08-24T11:45:49.934Z,98099.16
2023-08-24T11:46:51.702Z,98096.22
2023-08-24T11:47:53.282Z,98103.19
2023-08-24T11:48:54.681Z,98091.94
2023-08-24T11:49:56.297Z,98105.63
2023-08-24T11:51:01.159Z,98102.88
2023-08-24T11:52:02.838Z,98093.34
2023-08-24T11:53:07.986Z,98098.94
2023-08-24T11:54:09.650Z,98103.84
2023-08-24T11:55:11.791Z,98098.00
2023-08-24T11:56:14.133Z,98098.25
2023-08-24T11:57:15.491Z,98089.78
2023-08-24T11:58:17.295Z,98098.94
2023-08-24T11:59:19.056Z,98097.94
2023-08-24T12:00:24.114Z,98099.56
2023-08-24T12:01:26.400Z,98093.44
2023-08-24T12:02:28.567Z,98092.41
2023-08-24T12:03:29.995Z,98089.22
2023-08-24T12:04:42.000Z,98098.34
2023-08-24T12:05:43.430Z,98092.34
2023-08-24T12:06:45.185Z,98094.69
2023-08-24T12:07:46.866Z,98097.91
2023-08-24T12:08:48.999Z,98081.25
2023-08-24T12:09:50.770Z,98085.38
2023-08-24T12:10:52.170Z,98082.09
2023-08-24T12:11:56.888Z,98073.63
2023-08-24T12:13:06.868Z,98070.16
2023-08-24T12:14:08.300Z,98069.16
2023-08-24T12:15:17.568Z,98070.31
2023-08-24T12:16:20.550Z,98060.78
2023-08-24T12:17:22.602Z,98063.13
2023-08-24T12:18:23.983Z,98065.78